Terminal Aerodrome Forecast
Issued by NWS

Home | Current Version | Previous Version | Text Only | Print | Product List | Glossary On
Versions: 1 2 3 4 5 6 7 8 9 10 11 12 13 14 15 16 17 18 19
423
FTUS41 KCLE 021728
TAFFDY
TAF
KFDY 021728Z 0218/0318 07007KT P6SM OVC012
     FM022200 04007KT P6SM OVC022
     FM030200 VRB03KT P6SM OVC035
      TEMPO 0309/0312 4SM BR
     FM031400 34004KT P6SM BKN050=

USA.gov is the U.S. government's official web portal to all federal, state and local government web resources and services.